createdAt,value
2019-01-27T00:00:02.886Z,992.69
2019-01-27T00:05:02.624Z,992.6
2019-01-27T00:10:03.061Z,992.56
2019-01-27T00:15:02.490Z,992.41
2019-01-27T00:20:02.118Z,992.35
2019-01-27T00:25:01.653Z,992.26
2019-01-27T00:30:02.986Z,992.1
2019-01-27T00:35:02.415Z,991.94
2019-01-27T00:40:02.848Z,991.94
2019-01-27T00:45:03.194Z,991.83
2019-01-27T00:50:02.614Z,991.69
2019-01-27T00:55:02.951Z,991.52
2019-01-27T01:00:03.342Z,991.37
2019-01-27T01:05:02.747Z,991.26
2019-01-27T01:10:03.152Z,991.06
2019-01-27T01:15:02.578Z,990.84
2019-01-27T01:20:02.925Z,990.83
2019-01-27T01:25:03.363Z,990.67
2019-01-27T01:30:02.688Z,990.61
2019-01-27T01:35:03.125Z,990.44
2019-01-27T01:40:02.532Z,990.44
2019-01-27T01:45:02.889Z,990.34
2019-01-27T01:50:03.224Z,990.21
2019-01-27T01:55:02.626Z,990.13
2019-01-27T02:00:02.989Z,990.07
2019-01-27T02:05:02.411Z,990.03
2019-01-27T02:10:02.844Z,989.94
2019-01-27T02:15:03.233Z,989.88
2019-01-27T02:20:02.599Z,989.78
2019-01-27T02:25:02.992Z,989.5
2019-01-27T02:30:02.375Z,989.42
2019-01-27T02:35:02.766Z,989.19
2019-01-27T02:40:03.166Z,989.3
2019-01-27T02:45:02.565Z,989.09
2019-01-27T02:50:02.943Z,989.04
2019-01-27T02:55:02.518Z,988.82
2019-01-27T03:00:02.878Z,988.72
2019-01-27T03:05:03.221Z,988.63
2019-01-27T03:10:02.621Z,988.58
2019-01-27T03:15:02.958Z,988.52
2019-01-27T03:20:02.398Z,988.32
2019-01-27T03:25:02.849Z,988.55
2019-01-27T03:30:03.288Z,988.55
2019-01-27T03:35:02.689Z,988.27
2019-01-27T03:40:03.172Z,988.19
2019-01-27T03:45:02.587Z,988.09
2019-01-27T03:50:03.002Z,988.07
2019-01-27T03:55:02.457Z,987.89
2019-01-27T04:00:03.186Z,987.74
2019-01-27T04:05:02.603Z,987.71
2019-01-27T04:10:03.137Z,987.56
2019-01-27T04:15:02.561Z,987.57
2019-01-27T04:20:03.000Z,987.54
2019-01-27T04:25:02.426Z,987.36
2019-01-27T04:30:02.758Z,987.18
2019-01-27T04:35:03.121Z,987.16
2019-01-27T04:40:02.523Z,987.02
2019-01-27T04:45:02.854Z,986.91
2019-01-27T04:50:03.255Z,986.74
2019-01-27T04:55:02.653Z,986.78
2019-01-27T05:00:03.073Z,986.66
2019-01-27T05:10:03.042Z,986.65
2019-01-27T05:15:02.492Z,986.61
2019-01-27T05:20:02.931Z,986.49
2019-01-27T05:25:03.351Z,986.41
2019-01-27T05:30:02.763Z,986.36
2019-01-27T05:35:03.205Z,986.2
2019-01-27T05:40:02.614Z,986.2
2019-01-27T05:45:02.949Z,986.11
2019-01-27T05:50:02.586Z,986.1
2019-01-27T05:55:02.924Z,986.01
2019-01-27T06:00:03.316Z,986.03
2019-01-27T06:05:02.685Z,986.01
2019-01-27T06:10:03.134Z,986.01
2019-01-27T06:15:02.542Z,985.86
2019-01-27T06:20:02.896Z,985.86
2019-01-27T06:25:03.353Z,985.66
2019-01-27T06:30:02.748Z,985.69
2019-01-27T06:35:03.092Z,985.61
2019-01-27T06:40:02.495Z,985.52
2019-01-27T06:45:02.860Z,985.43
2019-01-27T06:50:03.193Z,985.45
2019-01-27T06:55:02.603Z,985.42
2019-01-27T07:00:02.993Z,985.32
2019-01-27T07:05:02.368Z,985.33
2019-01-27T07:10:02.824Z,985.35
2019-01-27T07:15:03.263Z,985.24
2019-01-27T07:20:02.666Z,985.24
2019-01-27T07:25:03.013Z,985.21
2019-01-27T07:30:02.433Z,985.15
2019-01-27T07:35:02.763Z,985.18
2019-01-27T07:40:03.230Z,985.22
2019-01-27T07:45:02.634Z,985.2
2019-01-27T07:50:02.995Z,985.1
2019-01-27T07:55:02.411Z,985.13
2019-01-27T08:00:02.846Z,985.07
2019-01-27T08:05:03.291Z,984.95
2019-01-27T08:10:02.683Z,984.95
2019-01-27T08:15:03.056Z,984.97
2019-01-27T08:20:02.385Z,985.01
2019-01-27T08:25:02.808Z,984.99
2019-01-27T08:30:03.161Z,984.99
2019-01-27T08:35:02.491Z,985.0
2019-01-27T08:40:02.941Z,984.95
2019-01-27T08:45:03.357Z,984.92
2019-01-27T08:50:02.811Z,984.92
2019-01-27T08:55:03.234Z,984.85
2019-01-27T09:00:02.831Z,984.78
2019-01-27T09:05:03.180Z,984.84
2019-01-27T09:10:02.602Z,984.77
2019-01-27T09:15:02.944Z,984.83
2019-01-27T09:20:03.379Z,984.77
2019-01-27T09:25:02.791Z,984.76
2019-01-27T09:30:03.444Z,984.85
2019-01-27T09:35:02.868Z,984.77
2019-01-27T09:40:03.311Z,984.75
2019-01-27T09:45:02.721Z,984.86
2019-01-27T09:50:02.267Z,984.85
2019-01-27T09:55:02.593Z,984.81
2019-01-27T10:00:02.978Z,984.78
2019-01-27T10:05:02.352Z,984.71
2019-01-27T10:10:02.798Z,984.77
2019-01-27T10:15:03.241Z,984.8
2019-01-27T10:20:02.684Z,984.82
2019-01-27T10:25:03.103Z,984.81
2019-01-27T10:30:02.518Z,984.72
2019-01-27T10:35:02.861Z,984.68
2019-01-27T10:40:09.241Z,984.63
2019-01-27T10:45:03.022Z,984.66
2019-01-27T10:50:02.482Z,984.6
2019-01-27T10:55:02.895Z,984.51
2019-01-27T11:00:03.339Z,984.5
2019-01-27T11:05:02.751Z,984.51
2019-01-27T11:10:03.198Z,984.41
2019-01-27T11:15:01.817Z,984.39
2019-01-27T11:20:03.263Z,984.38
2019-01-27T11:25:01.883Z,984.27
2019-01-27T11:30:03.231Z,984.33
2019-01-27T11:35:02.566Z,984.25
2019-01-27T11:40:02.991Z,984.24
2019-01-27T11:45:02.411Z,984.2
2019-01-27T11:50:02.764Z,984.13
2019-01-27T11:55:03.210Z,984.08
2019-01-27T12:00:02.606Z,984.09
2019-01-27T12:05:02.950Z,983.98
2019-01-27T12:10:02.375Z,984.0
2019-01-27T12:15:02.742Z,983.96
2019-01-27T12:20:03.168Z,983.9
2019-01-27T12:25:02.569Z,983.84
2019-01-27T12:30:03.045Z,983.88
2019-01-27T12:35:02.488Z,983.85
2019-01-27T12:40:02.976Z,983.89
2019-01-27T12:45:02.426Z,983.86
2019-01-27T12:50:02.842Z,983.92
2019-01-27T12:55:03.190Z,983.88
2019-01-27T13:00:02.625Z,983.83
2019-01-27T13:05:03.055Z,983.95
2019-01-27T13:10:02.462Z,983.87
2019-01-27T13:15:02.798Z,983.83
2019-01-27T13:20:03.163Z,983.85
2019-01-27T13:25:02.481Z,984.0
2019-01-27T13:30:02.997Z,984.01
2019-01-27T13:35:02.337Z,984.03
2019-01-27T13:40:02.799Z,984.08
2019-01-27T13:45:03.228Z,984.16
2019-01-27T13:50:02.628Z,984.22
2019-01-27T13:55:02.976Z,984.4
2019-01-27T14:00:02.388Z,984.44
2019-01-27T14:05:02.810Z,984.46
2019-01-27T14:10:03.280Z,984.65
2019-01-27T14:15:02.799Z,984.62
2019-01-27T14:20:03.150Z,984.83
2019-01-27T14:25:02.557Z,984.88
2019-01-27T14:30:02.928Z,985.08
2019-01-27T14:35:03.276Z,985.11
2019-01-27T14:40:02.761Z,985.14
2019-01-27T14:45:03.111Z,985.26
2019-01-27T14:50:02.528Z,985.33
2019-01-27T14:55:02.895Z,985.41
2019-01-27T15:00:03.312Z,985.48
2019-01-27T15:05:02.728Z,985.61
2019-01-27T15:10:03.181Z,985.83
2019-01-27T15:15:02.606Z,985.78
2019-01-27T15:20:02.957Z,985.94
2019-01-27T15:25:03.284Z,986.03
2019-01-27T15:30:02.728Z,986.11
2019-01-27T15:35:03.175Z,986.26
2019-01-27T15:40:02.653Z,986.18
2019-01-27T15:45:03.005Z,986.33
2019-01-27T15:50:02.412Z,986.44
2019-01-27T15:55:02.877Z,986.46
2019-01-27T16:00:07.738Z,986.52
2019-01-27T16:05:03.136Z,986.66
2019-01-27T16:10:02.555Z,986.76
2019-01-27T16:15:02.954Z,986.81
2019-01-27T16:20:03.346Z,986.81
2019-01-27T16:25:02.759Z,987.01
2019-01-27T16:30:03.095Z,987.08
2019-01-27T16:35:02.514Z,987.09
2019-01-27T16:40:02.961Z,987.18
2019-01-27T16:45:03.401Z,987.26
2019-01-27T16:50:02.820Z,987.27
2019-01-27T16:55:03.303Z,987.38
2019-01-27T17:00:02.623Z,987.53
2019-01-27T17:05:03.024Z,987.53
2019-01-27T17:10:02.448Z,987.64
2019-01-27T17:15:02.789Z,987.61
2019-01-27T17:20:03.277Z,987.61
2019-01-27T17:25:02.640Z,987.8
2019-01-27T17:30:03.206Z,987.87
2019-01-27T17:35:02.617Z,987.86
2019-01-27T17:40:03.054Z,987.83
2019-01-27T17:45:02.373Z,987.93
2019-01-27T17:50:02.717Z,987.98
2019-01-27T17:55:03.055Z,988.04
2019-01-27T18:00:02.475Z,988.12
2019-01-27T18:05:02.817Z,988.16
2019-01-27T18:10:03.268Z,988.18
2019-01-27T18:15:02.681Z,988.3
2019-01-27T18:20:03.141Z,988.35
2019-01-27T18:25:02.565Z,988.3
2019-01-27T18:30:02.997Z,988.37
2019-01-27T18:35:02.434Z,988.41
2019-01-27T18:40:02.866Z,988.36
2019-01-27T18:45:03.288Z,988.42
2019-01-27T18:50:02.763Z,988.44
2019-01-27T18:55:03.158Z,988.47
2019-01-27T19:00:02.569Z,988.51
2019-01-27T19:05:02.910Z,988.57
2019-01-27T19:10:02.441Z,988.56
2019-01-27T19:15:02.915Z,988.54
2019-01-27T19:20:03.350Z,988.58
2019-01-27T19:25:02.731Z,988.52
2019-01-27T19:30:03.088Z,988.6
2019-01-27T19:35:02.509Z,988.55
2019-01-27T19:40:02.942Z,988.57
2019-01-27T19:45:03.425Z,988.62
2019-01-27T19:50:02.803Z,988.59
2019-01-27T19:55:03.142Z,988.67
2019-01-27T20:00:02.557Z,988.65
2019-01-27T20:05:02.922Z,988.64
2019-01-27T20:10:02.322Z,988.72
2019-01-27T20:15:02.669Z,988.82
2019-01-27T20:20:02.213Z,988.75
2019-01-27T20:25:02.640Z,988.74
2019-01-27T20:30:03.292Z,988.7
2019-01-27T20:35:02.702Z,988.74
2019-01-27T20:40:03.143Z,988.7
2019-01-27T20:45:02.601Z,988.64
2019-01-27T20:50:03.027Z,988.52
2019-01-27T20:55:02.383Z,988.5
2019-01-27T21:00:02.790Z,988.46
2019-01-27T21:05:03.287Z,988.54
2019-01-27T21:10:02.723Z,988.53
2019-01-27T21:15:03.058Z,988.48
2019-01-27T21:20:02.488Z,988.48
2019-01-27T21:25:02.856Z,988.4
2019-01-27T21:30:03.308Z,988.4
2019-01-27T21:35:02.718Z,988.4
2019-01-27T21:40:03.147Z,988.38
2019-01-27T21:45:02.558Z,988.35
2019-01-27T21:50:02.893Z,988.21
2019-01-27T21:55:03.247Z,988.2
2019-01-27T22:00:02.542Z,988.26
2019-01-27T22:05:02.895Z,988.19
2019-01-27T22:10:03.375Z,988.19
2019-01-27T22:15:02.761Z,988.26
2019-01-27T22:20:03.235Z,988.26
2019-01-27T22:25:02.647Z,988.26
2019-01-27T22:30:03.068Z,987.98
2019-01-27T22:35:02.489Z,988.02
2019-01-27T22:40:02.925Z,987.99
2019-01-27T22:45:03.273Z,987.82
2019-01-27T22:50:02.724Z,987.9
2019-01-27T22:55:03.134Z,987.79
2019-01-27T23:00:03.426Z,987.75
2019-01-27T23:05:02.849Z,987.64
2019-01-27T23:10:03.330Z,987.67
2019-01-27T23:15:02.755Z,987.66
2019-01-27T23:20:03.233Z,987.7
2019-01-27T23:25:02.645Z,987.66
2019-01-27T23:30:03.062Z,987.7
2019-01-27T23:35:02.473Z,987.59
2019-01-27T23:40:02.922Z,987.54
2019-01-27T23:45:03.356Z,987.66
2019-01-27T23:50:02.776Z,987.54
2019-01-27T23:55:03.121Z,987.52
